Time;durP1;ratioP1;P1;durP2;ratioP2;P2;SDS_P1;SDS_P2;PMS_P1;PMS_P2;Temp;Humidity;BMP_temperature;BMP_pressure;BME280_temperature;BME280_humidity;BME280_pressure;Samples;Min_cycle;Max_cycle;Signal;HPM_P1;HPM_P2
2023/05/27 00:00:52;;;;;;;4.03;2.27;;;;;;;;;;5005416;28;20105;-61
2023/05/27 00:03:17;;;;;;;3.63;2.40;;;;;;;;;;5005520;28;20037;-59
2023/05/27 00:05:42;;;;;;;3.20;2.42;;;;;;;;;;5005335;28;20288;-59
2023/05/27 00:08:08;;;;;;;3.88;2.40;;;;;;;;;;5004162;28;20034;-59
2023/05/27 00:10:33;;;;;;;3.47;2.60;;;;;;;;;;5005099;28;20026;-59
2023/05/27 00:12:58;;;;;;;3.60;2.38;;;;;;;;;;5001746;28;20046;-60
2023/05/27 00:15:23;;;;;;;4.57;2.57;;;;;;;;;;5005136;28;20117;-59
2023/05/27 00:17:49;;;;;;;4.30;2.63;;;;;;;;;;5002477;28;20292;-60
2023/05/27 00:20:15;;;;;;;3.35;2.60;;;;;;;;;;4993600;28;20036;-59
2023/05/27 00:22:41;;;;;;;5.10;2.70;;;;;;;;;;5004125;28;20467;-58
2023/05/27 00:25:07;;;;;;;3.85;2.55;;;;;;;;;;5004466;28;20124;-59
2023/05/27 00:27:32;;;;;;;3.67;2.67;;;;;;;;;;4997699;28;20031;-61
2023/05/27 00:29:57;;;;;;;3.43;2.40;;;;;;;;;;5002106;28;20067;-59
2023/05/27 00:32:22;;;;;;;3.20;2.42;;;;;;;;;;5005933;28;20042;-59
2023/05/27 00:34:48;;;;;;;3.70;2.80;;;;;;;;;;5005101;28;20068;-59
2023/05/27 00:37:14;;;;;;;5.70;2.83;;;;;;;;;;5002483;28;20292;-59
2023/05/27 00:39:39;;;;;;;3.85;2.53;;;;;;;;;;4996831;28;20042;-59
2023/05/27 00:42:04;;;;;;;3.30;2.30;;;;;;;;;;4989223;28;20044;-59
2023/05/27 00:44:29;;;;;;;3.90;2.30;;;;;;;;;;4991657;28;20239;-59
2023/05/27 00:46:55;;;;;;;3.70;2.37;;;;;;;;;;5002258;28;20049;-59
2023/05/27 00:49:20;;;;;;;4.57;2.20;;;;;;;;;;5001172;28;20026;-59
2023/05/27 00:51:45;;;;;;;4.05;2.33;;;;;;;;;;5004885;28;20034;-59
2023/05/27 00:54:11;;;;;;;2.97;2.30;;;;;;;;;;5003114;28;20448;-59
2023/05/27 00:56:37;;;;;;;3.80;2.75;;;;;;;;;;5004393;28;20054;-60
2023/05/27 00:59:02;;;;;;;3.13;2.40;;;;;;;;;;5002401;28;20092;-59
2023/05/27 01:01:28;;;;;;;4.18;2.50;;;;;;;;;;5004541;28;20030;-59
2023/05/27 01:03:53;;;;;;;3.53;2.50;;;;;;;;;;5004598;28;20018;-60
2023/05/27 01:06:18;;;;;;;3.13;2.40;;;;;;;;;;4990065;28;20368;-59
2023/05/27 01:08:47;;;;;;;3.27;2.53;;;;;;;;;;5008672;28;20040;-59
2023/05/27 01:11:13;;;;;;;3.25;2.30;;;;;;;;;;5007444;28;20265;-60
2023/05/27 01:13:44;;;;;;;3.07;2.40;;;;;;;;;;5006984;28;20512;-59
2023/05/27 01:16:10;;;;;;;3.63;2.65;;;;;;;;;;4997194;28;20806;-59
2023/05/27 01:18:36;;;;;;;3.75;2.40;;;;;;;;;;5006695;28;20052;-59
2023/05/27 01:21:05;;;;;;;4.77;2.53;;;;;;;;;;5005063;28;20420;-59
2023/05/27 01:23:31;;;;;;;3.08;2.53;;;;;;;;;;5015687;28;20073;-59
2023/05/27 01:25:56;;;;;;;3.47;2.65;;;;;;;;;;5003442;28;20541;-59
2023/05/27 01:28:22;;;;;;;3.50;2.40;;;;;;;;;;5007623;28;20030;-60
2023/05/27 01:30:47;;;;;;;4.15;2.30;;;;;;;;;;5007266;28;20116;-59
2023/05/27 01:33:13;;;;;;;3.20;2.40;;;;;;;;;;5008305;28;20030;-59
2023/05/27 01:35:51;;;;;;;3.05;2.20;;;;;;;;;;5007492;28;20049;-59
2023/05/27 01:38:17;;;;;;;4.40;2.42;;;;;;;;;;4987472;28;20038;-59
2023/05/27 01:40:43;;;;;;;3.45;2.08;;;;;;;;;;5007286;28;20057;-60
2023/05/27 01:43:08;;;;;;;2.40;2.10;;;;;;;;;;5007696;28;20068;-60
2023/05/27 01:45:34;;;;;;;2.40;1.90;;;;;;;;;;5007979;28;20057;-59
2023/05/27 01:47:59;;;;;;;3.00;2.30;;;;;;;;;;5022362;28;20041;-60
2023/05/27 01:50:25;;;;;;;3.10;2.08;;;;;;;;;;5007488;28;20087;-59
2023/05/27 01:52:50;;;;;;;2.75;2.05;;;;;;;;;;5007046;28;20121;-60
2023/05/27 01:55:17;;;;;;;2.45;1.80;;;;;;;;;;5019400;28;20042;-58
2023/05/27 01:57:42;;;;;;;2.70;1.92;;;;;;;;;;4997279;28;20061;-60
2023/05/27 02:00:10;;;;;;;3.23;2.00;;;;;;;;;;5006934;28;20033;-59
2023/05/27 02:02:36;;;;;;;2.80;2.05;;;;;;;;;;5007635;28;20292;-60
2023/05/27 02:05:02;;;;;;;2.40;2.00;;;;;;;;;;5006963;28;20049;-59
2023/05/27 02:07:27;;;;;;;3.25;2.15;;;;;;;;;;5005682;28;20101;-60
2023/05/27 02:09:53;;;;;;;2.38;1.90;;;;;;;;;;5007104;28;20042;-59
2023/05/27 02:12:18;;;;;;;2.72;1.92;;;;;;;;;;5007591;28;20116;-60
2023/05/27 02:14:44;;;;;;;2.50;2.13;;;;;;;;;;5005035;28;20487;-59
2023/05/27 02:17:10;;;;;;;2.85;2.00;;;;;;;;;;5005832;28;20535;-58
2023/05/27 02:19:35;;;;;;;4.38;2.00;;;;;;;;;;5004133;28;20041;-58
2023/05/27 02:22:00;;;;;;;3.60;2.23;;;;;;;;;;4998223;28;20029;-60
2023/05/27 02:24:25;;;;;;;2.70;1.93;;;;;;;;;;5006763;28;20327;-60
2023/05/27 02:26:51;;;;;;;2.80;2.20;;;;;;;;;;5005269;28;20057;-59
2023/05/27 02:29:16;;;;;;;2.67;1.90;;;;;;;;;;5005935;28;20666;-59
2023/05/27 02:31:41;;;;;;;2.83;1.63;;;;;;;;;;5004695;28;20379;-59
2023/05/27 02:34:06;;;;;;;3.37;1.70;;;;;;;;;;4988729;28;20415;-59
2023/05/27 02:36:32;;;;;;;3.17;1.65;;;;;;;;;;5006197;28;20091;-59
2023/05/27 02:38:57;;;;;;;3.10;2.00;;;;;;;;;;5005961;28;20061;-59
2023/05/27 02:41:22;;;;;;;2.93;1.50;;;;;;;;;;5006845;28;20085;-59
2023/05/27 02:43:47;;;;;;;3.00;2.13;;;;;;;;;;5004846;28;20280;-59
2023/05/27 02:46:13;;;;;;;3.20;1.80;;;;;;;;;;4997291;28;20293;-58
2023/05/27 02:48:38;;;;;;;2.93;1.80;;;;;;;;;;5006202;28;20065;-59
2023/05/27 02:51:03;;;;;;;2.30;1.80;;;;;;;;;;5015522;28;20037;-59
2023/05/27 02:53:28;;;;;;;2.53;1.80;;;;;;;;;;5006353;28;20371;-58
2023/05/27 02:55:54;;;;;;;2.73;1.77;;;;;;;;;;5006818;28;20040;-62
2023/05/27 02:58:19;;;;;;;2.30;1.63;;;;;;;;;;4998500;28;20042;-59
2023/05/27 03:00:44;;;;;;;2.97;1.25;;;;;;;;;;5006370;28;20304;-59
2023/05/27 03:03:09;;;;;;;2.10;1.45;;;;;;;;;;5006009;28;20052;-60
2023/05/27 03:05:35;;;;;;;2.50;1.50;;;;;;;;;;5003523;28;20674;-59
2023/05/27 03:08:00;;;;;;;1.75;1.50;;;;;;;;;;5004508;28;20042;-60
2023/05/27 03:10:26;;;;;;;2.40;1.45;;;;;;;;;;5004624;28;20030;-59
2023/05/27 03:12:53;;;;;;;2.90;1.47;;;;;;;;;;5002305;28;20512;-60
2023/05/27 03:15:19;;;;;;;2.28;1.35;;;;;;;;;;5015904;28;20033;-59
2023/05/27 03:17:45;;;;;;;2.80;1.90;;;;;;;;;;5005995;28;20033;-59
2023/05/27 03:20:10;;;;;;;2.50;1.90;;;;;;;;;;5005248;28;20045;-60
2023/05/27 03:22:36;;;;;;;2.13;1.40;;;;;;;;;;4997097;28;20123;-60
2023/05/27 03:25:01;;;;;;;3.10;1.40;;;;;;;;;;4995444;28;20116;-60
2023/05/27 03:27:26;;;;;;;2.50;1.60;;;;;;;;;;4988353;28;20594;-59
2023/05/27 03:29:52;;;;;;;2.10;1.63;;;;;;;;;;4989679;28;20050;-59
2023/05/27 03:32:17;;;;;;;2.47;1.60;;;;;;;;;;4989978;28;20282;-59
2023/05/27 03:34:42;;;;;;;2.22;1.55;;;;;;;;;;4989775;28;20045;-59
2023/05/27 03:37:07;;;;;;;2.00;1.37;;;;;;;;;;4989685;28;20423;-59
2023/05/27 03:39:33;;;;;;;2.70;1.70;;;;;;;;;;4989778;28;20316;-59
2023/05/27 03:41:58;;;;;;;2.33;1.38;;;;;;;;;;4990971;28;20034;-59
2023/05/27 03:44:23;;;;;;;2.63;1.67;;;;;;;;;;4990271;28;20026;-58
2023/05/27 03:46:49;;;;;;;3.03;1.80;;;;;;;;;;4989669;28;20467;-59
2023/05/27 03:49:14;;;;;;;1.90;1.60;;;;;;;;;;4989307;28;20471;-59
2023/05/27 03:51:40;;;;;;;2.20;1.60;;;;;;;;;;4990111;28;20428;-59
2023/05/27 03:54:05;;;;;;;2.70;1.80;;;;;;;;;;4988779;28;20067;-59
2023/05/27 03:56:30;;;;;;;2.00;1.60;;;;;;;;;;4988726;28;20034;-59
2023/05/27 03:58:56;;;;;;;2.33;1.57;;;;;;;;;;4990152;28;20041;-59
2023/05/27 04:01:21;;;;;;;1.95;1.60;;;;;;;;;;4988217;28;20068;-58
2023/05/27 04:03:46;;;;;;;2.10;1.50;;;;;;;;;;4988519;28;20038;-59
2023/05/27 04:06:12;;;;;;;2.23;1.37;;;;;;;;;;4988098;28;20050;-58
2023/05/27 04:08:39;;;;;;;2.33;1.45;;;;;;;;;;4988125;28;20769;-58
2023/05/27 04:11:04;;;;;;;1.80;1.60;;;;;;;;;;4987072;28;20546;-58
2023/05/27 04:13:29;;;;;;;2.20;1.52;;;;;;;;;;4989477;28;20042;-59
2023/05/27 04:15:56;;;;;;;2.00;1.30;;;;;;;;;;4989292;28;20029;-59
2023/05/27 04:18:22;;;;;;;2.17;1.50;;;;;;;;;;4985857;28;20435;-60
2023/05/27 04:20:47;;;;;;;2.17;1.60;;;;;;;;;;4988328;28;20042;-59
2023/05/27 04:23:13;;;;;;;2.33;1.52;;;;;;;;;;4998269;28;20046;-59
2023/05/27 04:25:39;;;;;;;2.88;1.52;;;;;;;;;;5004002;28;20050;-61
2023/05/27 04:28:04;;;;;;;2.42;1.80;;;;;;;;;;4989229;28;20088;-59
2023/05/27 04:30:29;;;;;;;2.58;1.80;;;;;;;;;;4989152;28;20041;-60
2023/05/27 04:32:55;;;;;;;1.83;1.40;;;;;;;;;;4993699;28;20054;-59
2023/05/27 04:35:21;;;;;;;2.23;1.70;;;;;;;;;;4990654;28;20026;-57
2023/05/27 04:37:47;;;;;;;3.08;1.70;;;;;;;;;;5004789;28;20415;-58
2023/05/27 04:40:12;;;;;;;293.73;205.90;;;;;;;;;;4988902;28;20045;-58
2023/05/27 04:42:38;;;;;;;174.70;114.25;;;;;;;;;;4989993;28;20042;-59
2023/05/27 04:45:03;;;;;;;100.50;65.28;;;;;;;;;;4988311;28;20088;-59
2023/05/27 04:47:30;;;;;;;76.25;48.92;;;;;;;;;;4989604;28;20049;-59
2023/05/27 04:49:55;;;;;;;63.42;41.65;;;;;;;;;;4986950;28;20137;-60
2023/05/27 04:52:23;;;;;;;57.40;36.55;;;;;;;;;;4987289;28;20124;-60
2023/05/27 04:54:48;;;;;;;52.00;34.75;;;;;;;;;;4990230;28;20304;-59
2023/05/27 04:57:18;;;;;;;11.05;7.78;;;;;;;;;;4987853;28;20114;-61
2023/05/27 04:59:58;;;;;;;9.23;6.20;;;;;;;;;;4988267;28;20093;-59
2023/05/27 05:02:27;;;;;;;11.23;7.97;;;;;;;;;;4987867;28;20046;-60
2023/05/27 05:04:52;;;;;;;14.27;10.38;;;;;;;;;;4989666;28;20034;-59
2023/05/27 05:07:19;;;;;;;16.03;11.30;;;;;;;;;;4988853;28;20391;-59
2023/05/27 05:09:44;;;;;;;4.80;3.78;;;;;;;;;;4988392;28;20034;-60
2023/05/27 05:12:09;;;;;;;5.03;3.70;;;;;;;;;;4989392;28;20582;-60
2023/05/27 05:14:35;;;;;;;5.50;4.33;;;;;;;;;;4989833;28;20033;-59
2023/05/27 05:17:00;;;;;;;6.15;3.90;;;;;;;;;;4988543;28;20022;-57
2023/05/27 05:19:25;;;;;;;5.20;3.20;;;;;;;;;;4988901;28;20052;-59
2023/05/27 05:21:50;;;;;;;4.03;3.00;;;;;;;;;;4990662;28;20026;-60
2023/05/27 05:24:16;;;;;;;5.00;3.10;;;;;;;;;;4989879;28;20268;-58
2023/05/27 05:26:41;;;;;;;3.67;2.60;;;;;;;;;;4991394;28;20022;-59
2023/05/27 05:29:07;;;;;;;3.17;2.65;;;;;;;;;;4988531;28;20036;-60
2023/05/27 05:31:32;;;;;;;3.22;2.20;;;;;;;;;;4990130;28;20043;-59
2023/05/27 05:33:57;;;;;;;3.45;2.05;;;;;;;;;;4986784;28;20350;-61
2023/05/27 05:36:22;;;;;;;3.85;2.10;;;;;;;;;;4987221;28;20034;-61
2023/05/27 05:38:48;;;;;;;2.60;2.03;;;;;;;;;;4987932;28;20117;-60
2023/05/27 05:41:13;;;;;;;4.37;2.20;;;;;;;;;;4988757;28;20026;-59
2023/05/27 05:43:38;;;;;;;5.10;2.10;;;;;;;;;;4990522;28;20264;-61
2023/05/27 05:46:03;;;;;;;3.03;2.10;;;;;;;;;;4988719;28;20054;-58
2023/05/27 05:48:29;;;;;;;2.87;2.00;;;;;;;;;;4989776;28;20592;-60
2023/05/27 05:50:54;;;;;;;5.97;2.58;;;;;;;;;;4990607;28;20513;-60
2023/05/27 05:53:19;;;;;;;3.97;2.20;;;;;;;;;;4992386;28;20561;-65
2023/05/27 05:55:44;;;;;;;3.20;2.05;;;;;;;;;;5008023;28;20056;-61
2023/05/27 05:58:10;;;;;;;3.75;2.28;;;;;;;;;;4992805;28;20022;-61
2023/05/27 06:00:35;;;;;;;4.77;2.90;;;;;;;;;;4990070;28;20154;-62
2023/05/27 06:03:00;;;;;;;3.30;2.38;;;;;;;;;;5004508;28;20270;-60
2023/05/27 06:05:26;;;;;;;3.97;2.50;;;;;;;;;;4993582;28;20476;-61
2023/05/27 06:07:51;;;;;;;4.10;2.65;;;;;;;;;;4992977;28;20085;-61
2023/05/27 06:10:17;;;;;;;4.38;2.58;;;;;;;;;;4994947;28;21846;-61
2023/05/27 06:12:42;;;;;;;3.75;3.00;;;;;;;;;;4996488;28;20088;-61
2023/05/27 06:15:08;;;;;;;5.40;3.40;;;;;;;;;;4997412;28;20054;-61
2023/05/27 06:17:34;;;;;;;4.00;2.65;;;;;;;;;;4999879;28;20281;-60
2023/05/27 06:19:59;;;;;;;4.00;2.50;;;;;;;;;;4997338;28;20437;-60
2023/05/27 06:22:24;;;;;;;3.23;2.10;;;;;;;;;;5005424;28;20119;-61
2023/05/27 06:24:50;;;;;;;2.92;2.05;;;;;;;;;;4996891;28;20069;-59
2023/05/27 06:27:15;;;;;;;4.77;2.47;;;;;;;;;;4992085;28;20040;-58
2023/05/27 06:29:40;;;;;;;4.13;2.33;;;;;;;;;;4998560;28;20160;-59
2023/05/27 06:32:06;;;;;;;3.33;2.10;;;;;;;;;;4989859;28;20443;-57
2023/05/27 06:34:31;;;;;;;3.85;2.20;;;;;;;;;;5007037;28;20038;-59
2023/05/27 06:36:56;;;;;;;3.80;2.13;;;;;;;;;;4998242;28;20040;-58
2023/05/27 06:39:22;;;;;;;3.00;2.10;;;;;;;;;;5001495;28;20042;-59
2023/05/27 06:41:47;;;;;;;2.78;2.00;;;;;;;;;;4997552;28;20342;-60
2023/05/27 06:44:13;;;;;;;5.32;1.90;;;;;;;;;;5000699;28;20025;-59
2023/05/27 06:46:38;;;;;;;3.92;2.17;;;;;;;;;;5002023;28;20494;-60
2023/05/27 06:49:03;;;;;;;3.75;2.33;;;;;;;;;;4996164;28;20125;-61
2023/05/27 06:51:28;;;;;;;3.53;1.97;;;;;;;;;;4998218;28;20448;-60
2023/05/27 06:53:53;;;;;;;3.83;2.27;;;;;;;;;;4995995;28;20368;-62
2023/05/27 06:56:19;;;;;;;3.37;2.10;;;;;;;;;;4997589;28;20551;-61
2023/05/27 06:58:45;;;;;;;2.90;2.10;;;;;;;;;;4996883;28;20042;-61
2023/05/27 07:01:10;;;;;;;4.40;2.05;;;;;;;;;;5012224;28;20464;-60
2023/05/27 07:03:35;;;;;;;3.87;2.27;;;;;;;;;;4989059;28;20503;-60
2023/05/27 07:06:00;;;;;;;3.60;2.33;;;;;;;;;;4993751;28;20348;-60
2023/05/27 07:08:26;;;;;;;3.00;2.30;;;;;;;;;;4991558;28;20073;-60
2023/05/27 07:10:51;;;;;;;5.20;2.25;;;;;;;;;;4973303;28;20116;-59
2023/05/27 07:13:16;;;;;;;4.73;2.67;;;;;;;;;;4991779;28;20107;-58
2023/05/27 07:15:42;;;;;;;3.20;2.60;;;;;;;;;;4990200;28;20422;-60
2023/05/27 07:18:07;;;;;;;3.05;2.17;;;;;;;;;;4989776;28;20292;-58
2023/05/27 07:20:33;;;;;;;3.70;2.23;;;;;;;;;;4992660;28;20431;-58
2023/05/27 07:22:58;;;;;;;3.25;2.22;;;;;;;;;;4994134;28;20026;-59
2023/05/27 07:25:23;;;;;;;3.28;2.45;;;;;;;;;;4991069;28;20050;-58
2023/05/27 07:27:48;;;;;;;2.92;2.30;;;;;;;;;;4989774;28;20038;-58
2023/05/27 07:30:15;;;;;;;3.70;2.17;;;;;;;;;;4991333;28;20645;-58
2023/05/27 07:32:40;;;;;;;3.80;2.47;;;;;;;;;;4991034;28;20293;-59
2023/05/27 07:35:05;;;;;;;3.33;2.20;;;;;;;;;;4990641;28;20034;-60
2023/05/27 07:37:31;;;;;;;3.10;2.17;;;;;;;;;;4990026;28;20033;-60
2023/05/27 07:39:56;;;;;;;3.83;2.43;;;;;;;;;;4992423;28;20026;-60
2023/05/27 07:42:21;;;;;;;3.35;2.28;;;;;;;;;;4989762;28;20056;-60
2023/05/27 07:44:46;;;;;;;2.80;2.10;;;;;;;;;;4991237;28;20034;-59
2023/05/27 07:47:12;;;;;;;2.67;2.00;;;;;;;;;;4990472;28;20077;-60
2023/05/27 07:49:37;;;;;;;3.60;2.43;;;;;;;;;;4989337;28;20415;-60
2023/05/27 07:52:02;;;;;;;3.63;2.63;;;;;;;;;;4991804;28;20508;-60
2023/05/27 07:54:27;;;;;;;4.75;2.60;;;;;;;;;;4991171;28;20042;-59
2023/05/27 07:56:53;;;;;;;3.33;2.50;;;;;;;;;;4991206;28;20038;-59
2023/05/27 07:59:18;;;;;;;3.22;2.40;;;;;;;;;;4990990;28;20342;-61
2023/05/27 08:01:43;;;;;;;3.17;2.30;;;;;;;;;;4991469;28;20490;-60
2023/05/27 08:04:09;;;;;;;4.60;2.50;;;;;;;;;;4989120;28;20037;-59
2023/05/27 08:06:35;;;;;;;3.25;2.25;;;;;;;;;;4989384;28;20042;-60
2023/05/27 08:09:01;;;;;;;3.72;2.50;;;;;;;;;;4988475;28;22274;-60
2023/05/27 08:11:26;;;;;;;3.25;2.28;;;;;;;;;;4990051;28;20030;-60
2023/05/27 08:13:52;;;;;;;3.72;2.10;;;;;;;;;;4991850;28;20025;-61
2023/05/27 08:16:17;;;;;;;3.27;2.47;;;;;;;;;;5000546;28;20113;-61
2023/05/27 08:18:42;;;;;;;3.20;2.47;;;;;;;;;;4989498;28;20823;-60
2023/05/27 08:21:07;;;;;;;3.07;2.50;;;;;;;;;;4990608;28;20293;-60
2023/05/27 08:23:32;;;;;;;4.73;2.70;;;;;;;;;;4990439;28;20078;-61
2023/05/27 08:25:58;;;;;;;2.90;2.20;;;;;;;;;;4989352;28;20123;-62
2023/05/27 08:28:23;;;;;;;2.92;2.28;;;;;;;;;;4989909;28;20315;-60
2023/05/27 08:30:48;;;;;;;3.50;2.57;;;;;;;;;;4988363;28;20484;-61
2023/05/27 08:33:13;;;;;;;3.90;2.60;;;;;;;;;;4990597;28;20738;-62
2023/05/27 08:35:39;;;;;;;3.70;2.70;;;;;;;;;;4989285;28;20072;-61
2023/05/27 08:38:04;;;;;;;5.87;2.53;;;;;;;;;;4988886;28;20515;-61
2023/05/27 08:40:30;;;;;;;3.72;2.35;;;;;;;;;;4986871;28;20901;-60
2023/05/27 08:42:55;;;;;;;4.75;2.30;;;;;;;;;;4988344;28;20058;-61
2023/05/27 08:45:22;;;;;;;4.70;2.35;;;;;;;;;;4986003;28;20065;-59
2023/05/27 08:47:48;;;;;;;2.72;2.33;;;;;;;;;;4990001;28;20650;-59
2023/05/27 08:50:14;;;;;;;4.75;2.45;;;;;;;;;;4988737;28;20160;-59
2023/05/27 08:52:49;;;;;;;4.23;2.43;;;;;;;;;;4986822;28;20156;-58
2023/05/27 08:55:16;;;;;;;3.60;2.45;;;;;;;;;;4988942;28;20579;-58
2023/05/27 08:57:41;;;;;;;4.43;2.35;;;;;;;;;;5004383;28;20065;-59
2023/05/27 09:00:13;;;;;;;4.53;2.42;;;;;;;;;;4987726;28;20044;-59
2023/05/27 09:02:39;;;;;;;4.30;2.30;;;;;;;;;;4989756;28;20468;-59
2023/05/27 09:05:06;;;;;;;3.65;2.50;;;;;;;;;;4988216;28;20049;-59
2023/05/27 09:07:31;;;;;;;3.83;2.33;;;;;;;;;;5005373;28;20029;-59
2023/05/27 09:09:57;;;;;;;2.43;2.00;;;;;;;;;;4988838;28;20424;-60
2023/05/27 09:12:23;;;;;;;4.18;2.47;;;;;;;;;;5002207;28;20484;-60
2023/05/27 09:14:51;;;;;;;3.22;2.22;;;;;;;;;;4986069;28;20026;-61
2023/05/27 09:17:17;;;;;;;3.35;2.13;;;;;;;;;;4985456;28;20022;-61
2023/05/27 09:19:42;;;;;;;4.97;2.40;;;;;;;;;;4990989;28;20029;-62
2023/05/27 09:22:09;;;;;;;5.15;2.53;;;;;;;;;;4987888;28;20029;-61
2023/05/27 09:24:34;;;;;;;3.85;2.70;;;;;;;;;;4990170;28;20094;-63
2023/05/27 09:27:00;;;;;;;6.10;3.03;;;;;;;;;;4988815;28;20052;-60
2023/05/27 09:29:25;;;;;;;5.65;3.15;;;;;;;;;;5000436;28;20114;-61
2023/05/27 09:31:55;;;;;;;6.80;4.10;;;;;;;;;;4991778;28;20045;-62
2023/05/27 09:34:20;;;;;;;6.30;4.05;;;;;;;;;;4992973;28;20299;-61
2023/05/27 09:36:46;;;;;;;7.37;3.67;;;;;;;;;;4993176;28;20061;-62
2023/05/27 09:39:13;;;;;;;4.72;3.50;;;;;;;;;;4992686;28;20049;-63
2023/05/27 09:41:38;;;;;;;5.30;3.45;;;;;;;;;;4994020;28;20041;-62
2023/05/27 09:44:07;;;;;;;6.85;3.92;;;;;;;;;;5007283;28;20443;-61
2023/05/27 09:46:32;;;;;;;6.32;3.70;;;;;;;;;;4993094;28;20784;-62
2023/05/27 09:48:57;;;;;;;4.97;3.30;;;;;;;;;;5008725;28;20424;-63
2023/05/27 09:51:23;;;;;;;5.40;3.45;;;;;;;;;;4975743;28;20425;-62
2023/05/27 09:53:48;;;;;;;4.90;3.35;;;;;;;;;;4993936;28;20040;-62
2023/05/27 09:56:13;;;;;;;5.00;3.80;;;;;;;;;;4993674;28;20069;-62
2023/05/27 09:58:38;;;;;;;5.97;3.50;;;;;;;;;;5007463;28;20778;-62
2023/05/27 10:01:04;;;;;;;8.10;3.97;;;;;;;;;;4990130;28;20337;-62
2023/05/27 10:03:29;;;;;;;5.53;3.40;;;;;;;;;;4993578;28;20283;-61
2023/05/27 10:05:55;;;;;;;7.78;3.47;;;;;;;;;;4990361;28;20050;-61
2023/05/27 10:08:20;;;;;;;6.67;3.20;;;;;;;;;;4992427;28;20034;-62
2023/05/27 10:10:46;;;;;;;4.65;3.60;;;;;;;;;;4991409;28;20054;-61
2023/05/27 10:13:11;;;;;;;7.00;3.78;;;;;;;;;;4990430;28;20088;-61
2023/05/27 10:15:36;;;;;;;7.20;3.08;;;;;;;;;;4992374;28;20108;-59
2023/05/27 10:18:13;;;;;;;6.00;3.58;;;;;;;;;;4991052;28;20031;-62
2023/05/27 10:20:39;;;;;;;5.07;3.58;;;;;;;;;;4988570;28;20045;-62
2023/05/27 10:23:21;;;;;;;4.65;3.50;;;;;;;;;;4993065;28;20492;-61
2023/05/27 10:25:50;;;;;;;5.03;3.70;;;;;;;;;;4990313;28;20087;-61
2023/05/27 10:28:32;;;;;;;5.33;3.20;;;;;;;;;;4988768;28;20119;-62
2023/05/27 10:31:04;;;;;;;4.60;3.38;;;;;;;;;;4987918;28;20026;-62
2023/05/27 10:33:30;;;;;;;5.18;3.42;;;;;;;;;;4991162;28;20038;-62
2023/05/27 10:35:56;;;;;;;4.90;3.47;;;;;;;;;;4993307;28;20093;-61
2023/05/27 10:38:21;;;;;;;5.30;3.67;;;;;;;;;;4989335;28;20030;-62
2023/05/27 10:40:47;;;;;;;6.13;3.07;;;;;;;;;;4990955;28;20087;-61
2023/05/27 10:43:16;;;;;;;5.07;3.70;;;;;;;;;;4992711;28;20454;-61
2023/05/27 10:45:42;;;;;;;5.35;3.78;;;;;;;;;;4990870;28;20346;-62
2023/05/27 10:48:19;;;;;;;5.13;3.42;;;;;;;;;;4990833;28;20192;-62
2023/05/27 10:50:51;;;;;;;4.97;3.20;;;;;;;;;;4992613;28;20041;-62
2023/05/27 10:53:18;;;;;;;5.80;3.20;;;;;;;;;;4991964;28;20037;-62
2023/05/27 10:55:43;;;;;;;5.90;3.40;;;;;;;;;;4991419;28;20122;-62
2023/05/27 10:58:08;;;;;;;4.70;3.53;;;;;;;;;;4990729;28;20466;-61
2023/05/27 11:00:33;;;;;;;5.07;3.57;;;;;;;;;;4990459;28;21037;-60
2023/05/27 11:02:59;;;;;;;4.17;3.07;;;;;;;;;;4990312;28;20907;-61
2023/05/27 11:05:28;;;;;;;4.45;3.28;;;;;;;;;;4990297;28;20158;-62
2023/05/27 11:07:53;;;;;;;3.80;3.33;;;;;;;;;;4989162;28;20030;-61
2023/05/27 11:10:19;;;;;;;3.93;3.53;;;;;;;;;;4991991;28;20111;-60
2023/05/27 11:12:45;;;;;;;5.00;3.20;;;;;;;;;;4989523;28;20591;-61
2023/05/27 11:15:10;;;;;;;4.80;3.33;;;;;;;;;;4990037;28;20119;-61
2023/05/27 11:17:36;;;;;;;5.65;3.53;;;;;;;;;;4991883;28;20425;-62
2023/05/27 11:20:03;;;;;;;5.80;3.23;;;;;;;;;;4990641;28;20128;-61
2023/05/27 11:22:30;;;;;;;4.63;2.90;;;;;;;;;;4989843;28;20053;-62
2023/05/27 11:24:59;;;;;;;5.20;3.47;;;;;;;;;;4992142;28;20214;-61
2023/05/27 11:27:24;;;;;;;6.20;3.40;;;;;;;;;;4990800;28;20078;-61
2023/05/27 11:29:51;;;;;;;5.85;3.67;;;;;;;;;;4989133;28;20046;-61
2023/05/27 11:32:16;;;;;;;5.97;3.20;;;;;;;;;;4989576;28;20121;-61
2023/05/27 11:34:42;;;;;;;7.43;3.40;;;;;;;;;;4991776;28;20494;-60
2023/05/27 11:37:08;;;;;;;4.10;3.17;;;;;;;;;;4989502;28;20033;-59
2023/05/27 11:39:34;;;;;;;4.70;3.60;;;;;;;;;;4990470;28;20500;-62
2023/05/27 11:41:59;;;;;;;4.40;3.50;;;;;;;;;;5004044;28;20042;-60
2023/05/27 11:44:24;;;;;;;5.85;3.95;;;;;;;;;;4990598;28;20606;-59
2023/05/27 11:46:50;;;;;;;6.05;4.05;;;;;;;;;;4989734;28;21515;-59
2023/05/27 11:49:16;;;;;;;5.32;3.90;;;;;;;;;;4982701;28;20104;-59
2023/05/27 11:51:45;;;;;;;5.97;3.80;;;;;;;;;;4989901;28;20065;-58
2023/05/27 11:54:23;;;;;;;5.00;3.67;;;;;;;;;;4991438;28;20136;-59
2023/05/27 11:56:48;;;;;;;7.05;4.00;;;;;;;;;;4990620;28;20472;-60
2023/05/27 11:59:14;;;;;;;5.10;3.70;;;;;;;;;;4987467;28;20037;-60
2023/05/27 12:01:42;;;;;;;7.00;3.50;;;;;;;;;;4990388;28;20236;-60
2023/05/27 12:04:07;;;;;;;5.07;3.50;;;;;;;;;;4988590;28;20030;-60
2023/05/27 12:06:33;;;;;;;6.88;3.65;;;;;;;;;;4989112;28;20135;-60
2023/05/27 12:08:58;;;;;;;6.57;3.40;;;;;;;;;;4988726;28;20038;-60
2023/05/27 12:11:23;;;;;;;4.63;3.70;;;;;;;;;;4990381;28;20573;-58
2023/05/27 12:13:48;;;;;;;7.23;3.90;;;;;;;;;;4988774;28;20511;-60
2023/05/27 12:16:13;;;;;;;5.95;3.60;;;;;;;;;;4990174;28;20281;-60
2023/05/27 12:18:41;;;;;;;4.03;3.20;;;;;;;;;;4989370;28;20030;-59
2023/05/27 12:21:06;;;;;;;5.45;3.55;;;;;;;;;;4989883;28;20042;-59
2023/05/27 12:23:31;;;;;;;4.53;3.53;;;;;;;;;;4988446;28;20104;-60
2023/05/27 12:25:56;;;;;;;6.33;3.37;;;;;;;;;;4989826;28;22267;-60
2023/05/27 12:28:22;;;;;;;5.87;3.27;;;;;;;;;;4988073;28;20048;-62
2023/05/27 12:30:48;;;;;;;5.53;3.50;;;;;;;;;;4991052;28;20396;-60
2023/05/27 12:33:13;;;;;;;4.55;3.17;;;;;;;;;;4989068;28;20281;-60
2023/05/27 12:35:38;;;;;;;4.82;2.92;;;;;;;;;;4989631;28;20073;-61
2023/05/27 12:38:05;;;;;;;6.03;3.10;;;;;;;;;;4989798;28;20393;-61
2023/05/27 12:40:30;;;;;;;6.15;3.45;;;;;;;;;;4989782;28;20041;-60
2023/05/27 12:42:55;;;;;;;5.28;3.50;;;;;;;;;;4986944;28;20346;-62
2023/05/27 12:45:25;;;;;;;5.83;3.50;;;;;;;;;;4988003;28;20515;-60
2023/05/27 12:47:50;;;;;;;;;;;;;;;;;;4986622;28;20912;-60
2023/05/27 12:50:17;;;;;;;6.15;3.40;;;;;;;;;;4988421;28;19913;-61
2023/05/27 12:52:46;;;;;;;6.63;3.10;;;;;;;;;;4988928;28;20854;-61
2023/05/27 12:55:12;;;;;;;6.43;3.85;;;;;;;;;;4990235;28;20030;-61
2023/05/27 12:57:37;;;;;;;5.15;3.45;;;;;;;;;;4989186;28;20030;-62
2023/05/27 13:00:03;;;;;;;4.30;3.33;;;;;;;;;;4987246;28;20042;-61
2023/05/27 13:02:29;;;;;;;5.13;3.25;;;;;;;;;;4988026;28;20056;-62
2023/05/27 13:04:54;;;;;;;4.50;3.15;;;;;;;;;;4989139;28;20073;-62
2023/05/27 13:07:19;;;;;;;4.35;3.38;;;;;;;;;;4989899;28;20095;-60
2023/05/27 13:09:44;;;;;;;4.77;3.17;;;;;;;;;;4988789;28;20034;-60
2023/05/27 13:12:10;;;;;;;4.95;3.30;;;;;;;;;;4987320;28;20042;-61
2023/05/27 13:14:35;;;;;;;4.00;2.93;;;;;;;;;;5000877;28;20038;-62
2023/05/27 13:17:01;;;;;;;4.45;3.47;;;;;;;;;;4989196;28;20043;-60
2023/05/27 13:19:27;;;;;;;4.18;3.30;;;;;;;;;;4988654;28;20037;-61
2023/05/27 13:21:52;;;;;;;4.60;3.20;;;;;;;;;;4989838;28;20055;-61
2023/05/27 13:24:17;;;;;;;3.63;2.90;;;;;;;;;;5002536;28;20038;-61
2023/05/27 13:26:42;;;;;;;5.60;3.25;;;;;;;;;;4986656;28;20109;-61
2023/05/27 13:29:08;;;;;;;4.35;3.33;;;;;;;;;;4989069;28;20038;-61
2023/05/27 13:31:33;;;;;;;4.20;2.93;;;;;;;;;;4989629;28;20307;-61
2023/05/27 13:33:58;;;;;;;5.27;3.03;;;;;;;;;;4988372;28;20038;-61
2023/05/27 13:36:23;;;;;;;4.83;3.27;;;;;;;;;;4989107;28;20397;-59
2023/05/27 13:38:49;;;;;;;6.20;3.10;;;;;;;;;;4989163;28;20320;-60
2023/05/27 13:41:14;;;;;;;5.47;3.30;;;;;;;;;;4993099;28;20293;-61
2023/05/27 13:43:39;;;;;;;5.30;3.50;;;;;;;;;;4997001;28;20065;-61
2023/05/27 13:46:04;;;;;;;3.65;2.78;;;;;;;;;;5002495;28;20441;-63
2023/05/27 13:48:30;;;;;;;5.33;2.97;;;;;;;;;;5003785;28;20064;-61
2023/05/27 13:50:55;;;;;;;6.22;3.10;;;;;;;;;;5001464;28;20635;-60
2023/05/27 13:53:20;;;;;;;4.22;3.45;;;;;;;;;;5003478;28;20518;-60
2023/05/27 13:55:46;;;;;;;4.63;3.00;;;;;;;;;;5001775;28;20472;-60
2023/05/27 13:58:12;;;;;;;4.60;3.03;;;;;;;;;;5014729;28;20464;-60
2023/05/27 14:00:37;;;;;;;5.03;2.83;;;;;;;;;;5003650;28;20026;-61
2023/05/27 14:03:02;;;;;;;4.23;3.10;;;;;;;;;;5009532;28;20058;-61
2023/05/27 14:05:28;;;;;;;3.83;3.10;;;;;;;;;;5014878;28;20062;-60
2023/05/27 14:07:53;;;;;;;4.28;2.80;;;;;;;;;;4996431;28;20273;-61
2023/05/27 14:10:19;;;;;;;4.77;3.30;;;;;;;;;;5001449;28;20387;-61
2023/05/27 14:12:44;;;;;;;3.70;2.73;;;;;;;;;;5006427;28;20272;-61
2023/05/27 14:15:09;;;;;;;4.22;3.25;;;;;;;;;;5006865;28;20044;-60
2023/05/27 14:17:35;;;;;;;5.18;2.80;;;;;;;;;;5006575;28;20088;-61
2023/05/27 14:20:00;;;;;;;4.22;2.92;;;;;;;;;;5007442;28;20061;-61
2023/05/27 14:22:26;;;;;;;4.40;2.92;;;;;;;;;;5007081;28;20041;-61
2023/05/27 14:24:51;;;;;;;4.25;3.00;;;;;;;;;;5007061;28;20607;-61
2023/05/27 14:27:16;;;;;;;5.43;3.30;;;;;;;;;;5004489;28;20456;-61
2023/05/27 14:29:42;;;;;;;4.90;3.47;;;;;;;;;;5006505;28;20546;-60
2023/05/27 14:32:07;;;;;;;13.57;3.93;;;;;;;;;;5002465;28;20045;-61
2023/05/27 14:34:32;;;;;;;9.65;3.47;;;;;;;;;;5002428;28;20276;-60